Terminal Aerodrome Forecast
Issued by NWS

Home | Current Version | Previous Version | Text Only | Print | Product List | Glossary On
Versions: 1 2 3 4 5 6 7 8 9 10 11 12 13 14 15 16 17 18
000
FTAK31 PAJN 250531
TAFASI
TAF
PASI 250531Z 2506/2606 09005KT P6SM -RA FEW017 BKN020 OVC030
     FM250900 19008KT 5SM -RASN BKN015 OVC020
     FM251200 24008KT 3SM -SN OVC015 WS020/29030KT
     FM251500 28010KT 5SM -SN OVC025 WS020/30030KT
     FM251900 32010KT P6SM VCSH SCT030 BKN050 WS020/16035KT
     FM252300 36015KT P6SM SCT050 SCT070=

USA.gov is the U.S. government's official web portal to all federal, state and local government web resources and services.